Time;durP1;ratioP1;P1;durP2;ratioP2;P2;SDS_P1;SDS_P2;PMS_P1;PMS_P2;Temp;Humidity;BMP_temperature;BMP_pressure;BME280_temperature;BME280_humidity;BME280_pressure;Samples;Min_cycle;Max_cycle;Signal;HPM_P1;HPM_P2
2023/03/16 00:01:06;;;;;;;12.07;5.67;;;3.00;1.00;;;;;;5044263;28;20187;-55
2023/03/16 00:03:31;;;;;;;11.10;4.97;;;3.00;1.00;;;;;;5043712;28;20545;-54
2023/03/16 00:05:57;;;;;;;8.00;5.00;;;3.00;1.00;;;;;;5058311;28;20542;-55
2023/03/16 00:08:23;;;;;;;5.90;4.80;;;2.90;1.00;;;;;;5045591;28;20193;-55
2023/03/16 00:10:48;;;;;;;11.40;5.83;;;2.90;1.00;;;;;;5043689;28;20191;-52
2023/03/16 00:13:19;;;;;;;7.07;5.03;;;2.80;1.00;;;;;;5044343;28;20202;-56
2023/03/16 00:16:15;;;;;;;7.23;4.57;;;2.90;1.00;;;;;;5046997;28;20200;-54
2023/03/16 00:18:41;;;;;;;6.33;5.10;;;2.90;1.00;;;;;;5035133;28;20994;-54
2023/03/16 00:21:07;;;;;;;6.83;5.23;;;2.80;1.00;;;;;;5047465;28;20442;-54
2023/03/16 00:23:36;;;;;;;8.17;5.00;;;2.80;1.00;;;;;;5045938;28;20572;-55
2023/03/16 00:26:05;;;;;;;12.43;6.37;;;2.80;1.00;;;;;;5048379;28;20263;-53
2023/03/16 00:28:34;;;;;;;8.23;4.60;;;2.90;1.00;;;;;;5053501;28;20825;-54
2023/03/16 00:31:10;;;;;;;7.10;4.63;;;2.90;1.00;;;;;;5045970;28;20575;-53
2023/03/16 00:33:36;;;;;;;7.70;4.97;;;2.90;1.00;;;;;;5043827;28;20935;-53
2023/03/16 00:36:06;;;;;;;8.83;4.97;;;2.90;1.00;;;;;;5044986;28;20442;-53
2023/03/16 00:38:34;;;;;;;7.03;5.30;;;2.90;1.00;;;;;;5045191;28;20481;-53
2023/03/16 00:41:02;;;;;;;11.37;5.50;;;2.80;1.00;;;;;;5043407;28;20446;-53
2023/03/16 00:43:30;;;;;;;6.90;5.33;;;2.80;1.00;;;;;;5035665;28;20539;-54
2023/03/16 00:46:05;;;;;;;6.73;5.10;;;2.80;1.00;;;;;;5040347;28;20446;-53
2023/03/16 00:48:33;;;;;;;5.83;4.80;;;2.80;1.00;;;;;;5039435;28;20499;-54
2023/03/16 00:50:59;;;;;;;7.30;4.93;;;2.80;1.00;;;;;;5039199;28;20451;-53
2023/03/16 00:53:25;;;;;;;8.10;4.63;;;2.90;1.00;;;;;;5039350;28;20564;-54
2023/03/16 00:55:52;;;;;;;6.00;5.40;;;2.80;1.00;;;;;;5039061;28;20495;-54
2023/03/16 00:58:18;;;;;;;6.73;5.67;;;2.80;1.00;;;;;;5043542;28;20187;-53
2023/03/16 01:00:45;;;;;;;7.47;5.47;;;2.80;1.00;;;;;;5049609;28;20450;-53
2023/03/16 01:03:10;;;;;;;7.00;4.83;;;2.80;1.00;;;;;;5039859;28;20455;-53
2023/03/16 01:05:40;;;;;;;6.00;4.30;;;2.80;1.00;;;;;;5037989;28;21109;-53
2023/03/16 01:08:07;;;;;;;6.13;5.50;;;2.80;1.00;;;;;;5040304;28;20197;-54
2023/03/16 01:10:34;;;;;;;9.77;5.10;;;2.70;1.00;;;;;;5039506;28;21033;-54
2023/03/16 01:13:01;;;;;;;7.30;5.43;;;2.70;1.00;;;;;;5042737;28;20501;-54
2023/03/16 01:15:28;;;;;;;15.73;5.73;;;2.70;1.00;;;;;;5043697;28;20867;-53
2023/03/16 01:17:53;;;;;;;6.73;5.67;;;2.60;1.00;;;;;;5044557;28;20458;-55
2023/03/16 01:20:19;;;;;;;7.30;4.40;;;2.50;1.00;;;;;;5048901;28;20455;-54
2023/03/16 01:22:45;;;;;;;6.27;5.20;;;2.50;1.00;;;;;;5047633;28;20204;-52
2023/03/16 01:25:12;;;;;;;6.93;4.80;;;2.50;1.00;;;;;;5043616;28;20482;-53
2023/03/16 01:27:37;;;;;;;8.03;5.17;;;2.50;1.00;;;;;;5047684;28;20202;-53
2023/03/16 01:30:04;;;;;;;8.30;5.50;;;2.50;1.00;;;;;;5045545;28;20506;-54
2023/03/16 01:32:30;;;;;;;9.27;5.23;;;2.50;1.00;;;;;;5044216;28;20199;-54
2023/03/16 01:34:56;;;;;;;7.20;5.07;;;2.40;1.00;;;;;;5046319;28;20477;-52
2023/03/16 01:37:21;;;;;;;6.63;4.80;;;2.50;1.00;;;;;;5040324;28;20215;-53
2023/03/16 01:39:48;;;;;;;6.87;4.53;;;2.50;1.00;;;;;;5043872;28;20658;-53
2023/03/16 01:42:14;;;;;;;6.87;5.60;;;2.40;1.00;;;;;;5041602;28;20211;-54
2023/03/16 01:44:53;;;;;;;9.93;5.70;;;2.40;1.00;;;;;;5044746;28;20456;-52
2023/03/16 01:47:19;;;;;;;6.90;5.30;;;2.40;1.00;;;;;;5034860;28;20459;-53
2023/03/16 01:49:47;;;;;;;6.40;5.17;;;2.30;1.00;;;;;;5038065;28;20451;-55
2023/03/16 01:52:18;;;;;;;8.17;5.43;;;2.30;1.00;;;;;;5044218;28;20531;-53
2023/03/16 01:54:47;;;;;;;5.57;5.03;;;2.40;1.00;;;;;;5044104;28;20493;-55
2023/03/16 01:57:18;;;;;;;5.40;4.47;;;2.40;1.00;;;;;;5054298;28;20469;-55
2023/03/16 01:59:46;;;;;;;9.63;5.70;;;2.20;1.00;;;;;;5048772;28;20454;-54
2023/03/16 02:02:15;;;;;;;7.80;6.10;;;2.20;1.00;;;;;;5050537;28;20446;-55
2023/03/16 02:04:57;;;;;;;10.40;5.17;;;2.20;1.00;;;;;;5041815;28;20447;-55
2023/03/16 02:07:26;;;;;;;8.57;5.07;;;2.20;1.00;;;;;;5044730;28;20461;-54
2023/03/16 02:09:56;;;;;;;9.13;5.43;;;2.20;1.00;;;;;;5044675;28;21088;-53
2023/03/16 02:12:22;;;;;;;11.70;6.03;;;2.10;1.00;;;;;;5045587;28;20542;-53
2023/03/16 02:14:49;;;;;;;9.03;5.83;;;2.10;1.00;;;;;;5045534;28;20592;-54
2023/03/16 02:17:19;;;;;;;14.93;6.03;;;2.10;1.00;;;;;;5042852;28;20181;-55
2023/03/16 02:20:08;;;;;;;7.17;6.00;;;2.10;1.00;;;;;;5043943;28;20448;-54
2023/03/16 02:22:36;;;;;;;8.50;6.70;;;2.20;1.00;;;;;;5043499;28;20446;-53
2023/03/16 02:25:02;;;;;;;7.00;6.10;;;2.10;1.00;;;;;;5046998;28;20481;-52
2023/03/16 02:27:41;;;;;;;8.43;5.93;;;2.20;1.00;;;;;;5044566;28;20554;-55
2023/03/16 02:30:14;;;;;;;12.10;6.90;;;2.20;1.00;;;;;;5047442;28;20991;-53
2023/03/16 02:32:41;;;;;;;7.30;6.60;;;2.10;1.00;;;;;;5042320;28;20805;-54
2023/03/16 02:35:09;;;;;;;8.13;5.97;;;2.10;1.00;;;;;;5040802;28;20505;-53
2023/03/16 02:37:35;;;;;;;11.37;7.47;;;2.10;1.00;;;;;;5046764;28;20453;-53
2023/03/16 02:40:04;;;;;;;9.77;6.70;;;2.10;1.00;;;;;;5047317;28;20516;-53
2023/03/16 02:42:30;;;;;;;22.73;6.70;;;2.10;1.00;;;;;;5050780;28;20231;-53
2023/03/16 02:44:59;;;;;;;10.80;7.10;;;2.00;1.00;;;;;;5051089;28;20445;-53
2023/03/16 02:47:40;;;;;;;8.80;6.90;;;2.00;1.00;;;;;;5046491;28;20820;-53
2023/03/16 02:50:06;;;;;;;8.90;6.80;;;2.10;1.00;;;;;;5037740;28;21723;-54
2023/03/16 02:52:36;;;;;;;9.60;7.50;;;2.10;1.00;;;;;;5036679;28;20447;-55
2023/03/16 02:55:03;;;;;;;11.10;6.73;;;2.10;1.00;;;;;;5036706;28;20483;-54
2023/03/16 02:57:29;;;;;;;9.53;6.90;;;2.20;1.00;;;;;;5037949;28;20450;-56
2023/03/16 02:59:54;;;;;;;9.40;7.60;;;2.20;1.00;;;;;;5045037;28;20555;-53
2023/03/16 03:02:20;;;;;;;11.10;7.37;;;2.10;1.00;;;;;;5037667;28;20188;-53
2023/03/16 03:04:46;;;;;;;8.30;7.30;;;2.10;1.00;;;;;;5036206;28;20189;-53
2023/03/16 03:07:13;;;;;;;8.67;5.87;;;2.10;1.00;;;;;;5036450;28;20290;-53
2023/03/16 03:09:41;;;;;;;10.30;6.77;;;2.00;1.00;;;;;;5037598;28;20713;-54
2023/03/16 03:12:10;;;;;;;10.10;7.13;;;2.10;1.00;;;;;;5035443;28;20800;-53
2023/03/16 03:14:39;;;;;;;10.30;7.20;;;2.00;1.00;;;;;;5040765;28;20563;-54
2023/03/16 03:17:06;;;;;;;7.73;5.90;;;2.00;1.00;;;;;;5039782;28;21021;-54
2023/03/16 03:19:33;;;;;;;9.43;6.90;;;2.00;1.00;;;;;;5049405;28;20781;-54
2023/03/16 03:22:02;;;;;;;9.67;6.33;;;2.00;1.00;;;;;;5045450;28;20441;-54
2023/03/16 03:24:29;;;;;;;13.13;7.90;;;2.80;1.00;;;;;;5047280;28;20446;-53
2023/03/16 03:26:54;;;;;;;10.30;6.73;;;1.90;1.00;;;;;;5049078;28;20788;-54
2023/03/16 03:29:20;;;;;;;11.50;7.00;;;1.90;1.00;;;;;;5049718;28;20461;-53
2023/03/16 03:31:46;;;;;;;12.30;7.40;;;1.90;1.00;;;;;;5046423;28;20181;-54
2023/03/16 03:34:11;;;;;;;10.60;7.43;;;1.90;1.00;;;;;;5048684;28;20204;-53
2023/03/16 03:36:37;;;;;;;8.10;5.80;;;1.90;1.00;;;;;;5043244;28;20179;-53
2023/03/16 03:39:06;;;;;;;9.10;6.90;;;1.80;1.00;;;;;;5046723;28;20183;-54
2023/03/16 03:41:32;;;;;;;10.40;7.50;;;1.80;1.00;;;;;;5048447;28;20184;-55
2023/03/16 03:43:59;;;;;;;9.93;6.63;;;1.80;1.00;;;;;;5047607;28;20512;-54
2023/03/16 03:46:25;;;;;;;9.97;7.37;;;1.80;1.00;;;;;;5048945;28;20445;-52
2023/03/16 03:48:51;;;;;;;11.67;7.10;;;1.80;1.00;;;;;;5047871;28;20465;-53
2023/03/16 03:51:17;;;;;;;10.23;6.53;;;1.80;1.00;;;;;;5039519;28;21100;-54
2023/03/16 03:53:42;;;;;;;7.50;6.63;;;1.80;1.00;;;;;;5050892;28;20462;-54
2023/03/16 03:56:08;;;;;;;8.70;6.53;;;1.80;1.00;;;;;;5055312;28;20210;-55
2023/03/16 03:58:34;;;;;;;15.00;7.73;;;1.70;1.00;;;;;;5046997;28;20234;-53
2023/03/16 04:00:59;;;;;;;11.33;7.70;;;1.70;1.00;;;;;;5047540;28;20277;-54
2023/03/16 04:03:25;;;;;;;8.90;7.23;;;1.70;1.00;;;;;;5046830;28;20191;-54
2023/03/16 04:05:51;;;;;;;8.97;6.57;;;1.70;1.00;;;;;;5049718;28;20193;-53
2023/03/16 04:08:17;;;;;;;9.30;6.53;;;1.70;1.00;;;;;;5051145;28;20443;-55
2023/03/16 04:10:42;;;;;;;8.63;6.43;;;1.70;1.00;;;;;;5048158;28;20193;-54
2023/03/16 04:13:08;;;;;;;9.03;7.37;;;1.70;1.00;;;;;;5050101;28;20271;-53
2023/03/16 04:15:37;;;;;;;9.53;7.40;;;1.70;1.00;;;;;;5046893;28;20212;-52
2023/03/16 04:18:03;;;;;;;7.70;6.90;;;1.60;1.00;;;;;;5045634;28;20267;-54
2023/03/16 04:20:28;;;;;;;7.93;6.60;;;1.70;1.00;;;;;;5048427;28;21101;-52
2023/03/16 04:22:57;;;;;;;18.20;8.70;;;1.60;1.00;;;;;;5045456;28;20513;-54
2023/03/16 04:25:25;;;;;;;10.87;6.97;;;1.60;1.00;;;;;;5044345;28;20191;-54
2023/03/16 04:27:51;;;;;;;8.60;6.30;;;1.60;1.00;;;;;;5049387;28;20451;-53
2023/03/16 04:30:17;;;;;;;7.97;6.23;;;1.60;1.00;;;;;;5038839;28;20449;-53
2023/03/16 04:32:42;;;;;;;8.00;6.30;;;1.50;1.00;;;;;;5040627;28;20591;-55
2023/03/16 04:35:09;;;;;;;10.67;7.20;;;1.50;1.00;;;;;;5045246;28;20208;-53
2023/03/16 04:37:35;;;;;;;10.50;6.10;;;1.50;1.00;;;;;;5046839;28;20186;-52
2023/03/16 04:40:09;;;;;;;11.30;6.93;;;1.50;1.00;;;;;;5044895;28;20444;-54
2023/03/16 04:42:34;;;;;;;8.40;6.97;;;1.50;1.00;;;;;;5047894;28;20540;-53
2023/03/16 04:45:00;;;;;;;10.67;6.53;;;1.50;1.00;;;;;;5044963;28;20552;-53
2023/03/16 04:47:26;;;;;;;8.67;6.03;;;1.50;1.00;;;;;;5047867;28;20219;-53
2023/03/16 04:49:52;;;;;;;9.80;6.80;;;1.50;1.00;;;;;;5043686;28;20706;-54
2023/03/16 04:52:18;;;;;;;7.87;6.97;;;1.50;1.00;;;;;;5040542;28;20219;-53
2023/03/16 04:54:43;;;;;;;10.13;6.00;;;1.50;1.00;;;;;;5037850;28;21099;-55
2023/03/16 04:57:09;;;;;;;8.73;6.30;;;1.50;1.00;;;;;;5041027;28;20257;-54
2023/03/16 04:59:34;;;;;;;12.13;7.33;;;1.50;1.00;;;;;;5039567;28;20231;-55
2023/03/16 05:02:00;;;;;;;11.80;6.97;;;1.40;1.00;;;;;;5036721;28;20188;-55
2023/03/16 05:04:26;;;;;;;7.43;6.67;;;1.40;1.00;;;;;;5039867;28;20192;-53
2023/03/16 05:06:51;;;;;;;10.33;6.67;;;1.50;1.00;;;;;;5038633;28;20222;-54
2023/03/16 05:09:19;;;;;;;9.80;7.10;;;1.50;1.00;;;;;;5042609;28;20192;-53
2023/03/16 05:11:45;;;;;;;11.53;8.13;;;1.50;1.00;;;;;;5034791;28;20198;-55
2023/03/16 05:14:10;;;;;;;10.30;7.60;;;1.40;1.00;;;;;;5038977;28;21038;-52
2023/03/16 05:16:36;;;;;;;9.17;6.80;;;1.50;1.00;;;;;;5038918;28;20191;-53
2023/03/16 05:19:02;;;;;;;13.37;6.37;;;1.40;1.00;;;;;;5038768;28;20366;-53
2023/03/16 05:21:30;;;;;;;9.30;6.87;;;1.40;1.00;;;;;;5049094;28;20183;-53
2023/03/16 05:23:56;;;;;;;7.70;6.67;;;1.50;1.00;;;;;;5047868;28;20245;-53
2023/03/16 05:26:24;;;;;;;7.70;6.27;;;1.40;1.00;;;;;;5043785;28;21121;-54
2023/03/16 05:28:50;;;;;;;15.40;6.50;;;1.50;1.00;;;;;;5048193;28;20207;-54
2023/03/16 05:31:16;;;;;;;10.20;6.60;;;1.50;1.00;;;;;;5052604;28;20447;-55
2023/03/16 05:33:43;;;;;;;9.50;6.50;;;1.50;1.00;;;;;;5048064;28;20577;-54
2023/03/16 05:36:09;;;;;;;13.53;7.07;;;1.50;1.00;;;;;;5051856;28;20478;-53
2023/03/16 05:38:35;;;;;;;7.60;6.73;;;1.40;1.00;;;;;;5056172;28;20447;-53
2023/03/16 05:41:03;;;;;;;8.60;7.07;;;1.40;1.00;;;;;;5044867;28;20506;-54
2023/03/16 05:43:29;;;;;;;9.23;6.30;;;1.40;1.00;;;;;;5045155;28;21283;-54
2023/03/16 05:45:55;;;;;;;9.47;7.47;;;1.50;1.00;;;;;;5047010;28;20456;-52
2023/03/16 05:48:21;;;;;;;12.87;6.10;;;1.50;1.00;;;;;;5044745;28;20442;-54
2023/03/16 05:50:47;;;;;;;10.53;6.63;;;1.50;1.00;;;;;;5049949;28;20526;-54
2023/03/16 05:53:14;;;;;;;11.47;6.97;;;1.50;1.00;;;;;;5049083;28;20586;-56
2023/03/16 05:55:40;;;;;;;8.90;7.70;;;1.50;1.00;;;;;;5047328;28;20215;-52
2023/03/16 05:58:05;;;;;;;11.80;6.27;;;1.60;1.00;;;;;;5048622;28;20465;-56
2023/03/16 06:00:31;;;;;;;9.40;7.20;;;1.60;1.00;;;;;;5055091;28;22612;-54
2023/03/16 06:02:57;;;;;;;12.33;6.63;;;1.70;1.00;;;;;;5046752;28;20293;-55
2023/03/16 06:05:23;;;;;;;9.63;6.43;;;2.50;1.00;;;;;;5047934;28;20208;-55
2023/03/16 06:07:50;;;;;;;9.30;6.60;;;1.70;1.00;;;;;;5046921;28;20311;-55
2023/03/16 06:10:17;;;;;;;14.63;6.87;;;1.80;1.00;;;;;;5045966;28;21197;-55
2023/03/16 06:12:43;;;;;;;9.77;6.70;;;1.80;1.00;;;;;;5042733;28;20523;-52
2023/03/16 06:15:10;;;;;;;11.30;7.43;;;1.90;1.00;;;;;;5039118;28;21003;-53
2023/03/16 06:17:36;;;;;;;9.50;6.23;;;2.00;1.00;;;;;;5048170;28;20438;-54
2023/03/16 06:20:09;;;;;;;8.73;6.30;;;2.00;1.00;;;;;;5040189;28;20451;-52
2023/03/16 06:22:35;;;;;;;9.50;6.13;;;2.10;1.00;;;;;;5041539;28;20446;-54
2023/03/16 06:25:00;;;;;;;9.53;5.80;;;2.20;1.00;;;;;;5042160;28;20508;-52
2023/03/16 06:27:27;;;;;;;10.73;6.00;;;2.20;1.00;;;;;;5045507;28;20534;-55
2023/03/16 06:29:53;;;;;;;7.90;6.67;;;2.30;1.00;;;;;;5042021;28;20210;-54
2023/03/16 06:32:19;;;;;;;9.60;6.40;;;2.30;1.00;;;;;;5048100;28;20462;-53
2023/03/16 06:35:02;;;;;;;8.77;6.03;;;2.40;1.00;;;;;;5044126;28;20248;-54
2023/03/16 06:37:28;;;;;;;10.83;6.63;;;2.50;1.00;;;;;;5051093;28;20504;-55
2023/03/16 06:39:54;;;;;;;10.53;7.03;;;2.60;1.00;;;;;;5048246;28;20445;-54
2023/03/16 06:42:20;;;;;;;13.03;7.60;;;2.70;1.00;;;;;;5048194;28;20445;-54
2023/03/16 06:44:45;;;;;;;7.30;6.50;;;2.80;1.00;;;;;;5055291;28;20184;-55
2023/03/16 06:47:11;;;;;;;10.73;6.00;;;2.80;1.00;;;;;;5048035;28;20237;-54
2023/03/16 06:49:37;;;;;;;10.80;6.87;;;3.20;1.00;;;;;;5048231;28;20278;-55
2023/03/16 06:52:03;;;;;;;8.23;6.50;;;3.40;1.00;;;;;;5048354;28;20544;-55
2023/03/16 06:54:31;;;;;;;14.33;6.57;;;3.50;1.00;;;;;;5053833;28;20300;-54
2023/03/16 06:56:57;;;;;;;7.90;6.20;;;3.70;1.00;;;;;;5048227;28;20453;-54
2023/03/16 06:59:22;;;;;;;9.50;5.97;;;3.80;1.00;;;;;;5047578;28;20451;-54
2023/03/16 07:01:49;;;;;;;7.67;5.53;;;4.00;1.00;;;;;;5054286;28;20443;-55
2023/03/16 07:04:15;;;;;;;13.03;5.23;;;4.30;1.00;;;;;;5048330;28;20191;-55
2023/03/16 07:06:40;;;;;;;7.20;5.67;;;4.60;1.00;;;;;;5048732;28;20439;-54
2023/03/16 07:09:06;;;;;;;15.00;6.40;;;4.60;1.00;;;;;;5047149;28;20479;-53
2023/03/16 07:11:32;;;;;;;15.77;6.07;;;4.60;1.00;;;;;;5048567;28;20188;-54
2023/03/16 07:13:58;;;;;;;9.23;6.20;;;4.50;1.00;;;;;;5045375;28;20501;-54
2023/03/16 07:16:24;;;;;;;6.90;5.57;;;4.50;1.00;;;;;;5046876;28;20747;-55
2023/03/16 07:18:51;;;;;;;7.97;5.57;;;4.50;1.00;;;;;;5049156;28;20435;-54
2023/03/16 07:21:17;;;;;;;8.33;5.23;;;4.60;1.00;;;;;;5046414;28;20450;-53
2023/03/16 07:23:43;;;;;;;8.07;6.67;;;4.70;1.00;;;;;;5047860;28;20462;-54
2023/03/16 07:26:10;;;;;;;7.30;6.30;;;4.60;1.00;;;;;;5055042;28;20463;-54
2023/03/16 07:28:37;;;;;;;8.67;6.37;;;4.70;1.00;;;;;;5052997;28;20455;-55
2023/03/16 07:31:03;;;;;;;8.77;6.47;;;4.70;1.00;;;;;;5046034;28;20478;-54
2023/03/16 07:33:31;;;;;;;12.80;6.70;;;4.70;1.00;;;;;;5052944;28;20447;-55
2023/03/16 07:35:56;;;;;;;6.63;5.57;;;4.80;1.00;;;;;;5067587;28;20587;-53
2023/03/16 07:38:22;;;;;;;8.60;5.83;;;5.00;1.00;;;;;;5061490;28;20545;-54
2023/03/16 07:40:49;;;;;;;10.67;6.30;;;5.00;1.00;;;;;;5044516;28;20180;-53
2023/03/16 07:43:14;;;;;;;5.87;4.80;;;5.20;1.00;;;;;;5047328;28;20465;-53
2023/03/16 07:45:40;;;;;;;10.43;5.53;;;5.30;1.00;;;;;;5042292;28;20540;-54
2023/03/16 07:48:06;;;;;;;6.00;4.23;;;5.40;1.00;;;;;;5045418;28;20188;-54
2023/03/16 07:50:32;;;;;;;6.03;4.67;;;5.50;1.00;;;;;;5043872;28;20537;-54
2023/03/16 07:52:57;;;;;;;7.53;4.63;;;5.50;1.00;;;;;;5043822;28;20195;-56
2023/03/16 07:55:23;;;;;;;9.90;6.83;;;5.50;1.00;;;;;;5048190;28;20489;-54
2023/03/16 07:57:49;;;;;;;4.93;4.20;;;5.50;1.00;;;;;;5048099;28;20307;-53
2023/03/16 08:00:15;;;;;;;6.43;4.20;;;5.70;1.00;;;;;;5048535;28;20188;-55
2023/03/16 08:02:40;;;;;;;8.63;4.63;;;5.70;1.00;;;;;;5048397;28;20745;-55
2023/03/16 08:05:09;;;;;;;9.13;4.90;;;5.90;1.00;;;;;;5048652;28;20523;-55
2023/03/16 08:07:34;;;;;;;5.53;4.63;;;6.10;1.00;;;;;;5051226;28;20192;-54
2023/03/16 08:10:00;;;;;;;5.90;5.03;;;6.30;1.00;;;;;;5051796;28;20795;-53
2023/03/16 08:12:26;;;;;;;7.77;5.03;;;6.40;1.00;;;;;;5051612;28;20567;-55
2023/03/16 08:14:53;;;;;;;5.23;4.33;;;6.50;1.00;;;;;;5051742;28;20248;-54
2023/03/16 08:17:18;;;;;;;7.90;4.63;;;6.70;1.00;;;;;;5051745;28;20179;-55
2023/03/16 08:19:44;;;;;;;4.63;4.13;;;6.90;1.00;;;;;;5051916;28;20529;-54
2023/03/16 08:22:11;;;;;;;8.10;4.90;;;7.00;1.00;;;;;;5051531;28;20599;-53
2023/03/16 08:24:37;;;;;;;10.80;5.63;;;7.10;1.00;;;;;;5051765;28;20446;-55
2023/03/16 08:27:03;;;;;;;7.80;4.80;;;7.30;1.00;;;;;;5051853;28;20533;-54
2023/03/16 08:29:29;;;;;;;11.50;5.43;;;7.30;1.00;;;;;;5051572;28;20461;-54
2023/03/16 08:31:55;;;;;;;6.93;4.83;;;7.30;1.00;;;;;;5054499;28;20537;-54
2023/03/16 08:34:22;;;;;;;8.70;5.37;;;7.50;1.00;;;;;;5051532;28;21612;-54
2023/03/16 08:36:47;;;;;;;8.50;5.03;;;7.60;1.00;;;;;;5051532;28;20492;-54
2023/03/16 08:39:14;;;;;;;10.27;4.50;;;7.70;1.00;;;;;;5051106;28;20443;-55
2023/03/16 08:41:41;;;;;;;8.17;3.87;;;7.80;1.00;;;;;;5052060;28;20196;-53
2023/03/16 08:44:08;;;;;;;6.70;3.90;;;7.90;1.00;;;;;;5050655;28;20440;-55
2023/03/16 08:46:34;;;;;;;7.00;4.90;;;8.00;1.00;;;;;;5050902;28;20504;-54
2023/03/16 08:49:00;;;;;;;6.37;4.20;;;8.10;1.00;;;;;;5050997;28;20446;-54
2023/03/16 08:51:26;;;;;;;11.43;3.83;;;8.10;1.00;;;;;;5050713;28;20483;-53
2023/03/16 08:53:52;;;;;;;6.33;4.80;;;8.10;1.00;;;;;;5060700;28;20232;-56
2023/03/16 08:56:18;;;;;;;5.23;4.13;;;8.40;1.00;;;;;;5071151;28;20462;-54
2023/03/16 08:58:44;;;;;;;7.43;4.87;;;8.40;1.00;;;;;;5071000;28;20446;-53
2023/03/16 09:01:12;;;;;;;8.60;4.20;;;8.70;1.00;;;;;;5064950;28;20224;-55
2023/03/16 09:03:39;;;;;;;6.40;4.40;;;8.80;1.00;;;;;;5051075;28;20427;-54
2023/03/16 09:06:10;;;;;;;5.20;3.20;;;9.00;1.00;;;;;;5051241;28;20434;-55
2023/03/16 09:08:37;;;;;;;4.70;3.80;;;9.00;1.00;;;;;;5050945;28;20443;-54
2023/03/16 09:11:11;;;;;;;6.73;3.67;;;9.20;1.00;;;;;;5050969;28;20435;-55
2023/03/16 09:13:38;;;;;;;6.17;2.97;;;9.40;1.00;;;;;;5050877;28;20447;-54
2023/03/16 09:16:04;;;;;;;6.47;4.47;;;9.40;1.00;;;;;;5050687;28;20501;-55
2023/03/16 09:18:31;;;;;;;5.17;3.30;;;9.50;1.00;;;;;;5050448;28;20431;-53
2023/03/16 09:21:02;;;;;;;5.03;2.17;;;9.70;1.00;;;;;;5051233;28;20438;-55
2023/03/16 09:23:29;;;;;;;9.60;2.60;;;9.70;1.00;;;;;;5050462;28;20523;-54
2023/03/16 09:26:00;;;;;;;6.40;2.10;;;10.00;1.00;;;;;;5050443;28;20413;-54
2023/03/16 09:28:28;;;;;;;6.00;2.70;;;9.90;1.00;;;;;;5052203;28;20592;-54
2023/03/16 09:30:55;;;;;;;4.37;2.83;;;9.90;1.00;;;;;;5050143;28;20446;-54
2023/03/16 09:33:25;;;;;;;7.03;3.70;;;9.80;1.00;;;;;;5050500;28;20439;-54
2023/03/16 09:35:51;;;;;;;6.53;2.77;;;9.90;1.00;;;;;;5050162;28;20475;-54
2023/03/16 09:38:18;;;;;;;3.20;1.60;;;10.00;1.00;;;;;;5050190;28;20442;-53
2023/03/16 09:40:46;;;;;;;4.30;2.33;;;10.10;1.00;;;;;;5050560;28;21001;-55
2023/03/16 09:43:43;;;;;;;2.63;2.20;;;10.20;1.00;;;;;;5051290;28;20486;-54
2023/03/16 09:46:23;;;;;;;4.90;2.47;;;10.20;1.00;;;;;;5050201;28;20443;-54
2023/03/16 09:48:49;;;;;;;2.40;1.80;;;10.20;1.00;;;;;;5051049;28;20465;-54
2023/03/16 09:52:07;;;;;;;3.10;1.50;;;10.20;1.00;;;;;;5049565;28;20944;-55
2023/03/16 09:54:54;;;;;;;3.17;2.00;;;10.20;1.00;;;;;;5015553;28;20224;-56
2023/03/16 09:57:41;;;;;;;4.57;1.60;;;10.40;1.00;;;;;;5050179;28;20800;-54
2023/03/16 10:00:40;;;;;;;3.17;1.30;;;10.70;1.00;;;;;;5050024;28;20434;-55
2023/03/16 10:06:31;;;;;;;3.00;1.83;;;10.70;1.00;;;;;;5068802;28;20479;-54
2023/03/16 10:09:25;;;;;;;3.60;2.30;;;10.70;1.00;;;;;;5049864;28;20542;-54
2023/03/16 10:11:56;;;;;;;1.83;1.60;;;10.70;1.00;;;;;;5049615;28;20430;-55
2023/03/16 10:14:34;;;;;;;5.00;2.20;;;10.70;1.00;;;;;;5050684;28;20811;-54
2023/03/16 10:17:18;;;;;;;3.93;1.97;;;10.70;1.00;;;;;;5049541;28;20496;-54
2023/03/16 10:19:58;;;;;;;5.37;1.83;;;10.90;1.00;;;;;;5049739;28;20455;-54
2023/03/16 10:22:29;;;;;;;4.13;2.07;;;10.80;1.00;;;;;;5049560;28;20443;-55
2023/03/16 10:25:06;;;;;;;2.23;1.47;;;11.00;1.00;;;;;;5049838;28;20836;-54
2023/03/16 10:27:37;;;;;;;4.47;2.40;;;11.00;1.00;;;;;;5049430;28;20439;-55
2023/03/16 10:30:19;;;;;;;4.80;1.80;;;11.10;1.00;;;;;;5047877;28;20972;-54
2023/03/16 10:32:46;;;;;;;2.80;1.50;;;11.40;1.00;;;;;;5049750;28;20810;-54
2023/03/16 10:35:23;;;;;;;3.03;1.77;;;11.50;1.00;;;;;;5066750;28;20498;-54
2023/03/16 10:37:50;;;;;;;3.73;1.80;;;11.50;1.00;;;;;;5069250;28;20430;-55
2023/03/16 10:40:19;;;;;;;6.30;2.50;;;11.60;1.00;;;;;;5061906;28;20454;-54
2023/03/16 10:42:48;;;;;;;6.50;1.67;;;11.40;1.00;;;;;;5049096;28;20450;-55
2023/03/16 10:45:31;;;;;;;3.20;1.47;;;11.40;1.00;;;;;;5049329;28;20562;-54
2023/03/16 10:48:19;;;;;;;2.43;1.90;;;11.60;1.00;;;;;;5048993;28;20508;-54
2023/03/16 10:50:50;;;;;;;5.70;2.10;;;11.70;1.00;;;;;;5048670;28;20467;-55
2023/03/16 10:53:25;;;;;;;3.37;1.70;;;11.60;1.00;;;;;;5048948;28;20526;-55
2023/03/16 10:56:00;;;;;;;6.83;2.60;;;11.70;1.00;;;;;;5049322;28;20469;-55
2023/03/16 10:58:31;;;;;;;5.07;1.50;;;11.70;1.00;;;;;;5049182;28;20472;-54
2023/03/16 11:00:57;;;;;;;3.17;1.53;;;11.80;1.00;;;;;;5048793;28;20442;-54
2023/03/16 11:03:31;;;;;;;3.50;1.80;;;11.90;1.00;;;;;;5050098;28;20450;-55
2023/03/16 11:06:05;;;;;;;7.10;1.70;;;12.10;1.00;;;;;;5051488;28;20425;-53
2023/03/16 11:08:34;;;;;;;4.10;2.00;;;11.90;1.00;;;;;;5049021;28;20476;-53
2023/03/16 11:11:26;;;;;;;5.37;1.90;;;11.80;1.00;;;;;;5048843;28;20447;-55
2023/03/16 11:13:56;;;;;;;6.77;1.80;;;11.80;1.00;;;;;;5048572;28;20465;-55
2023/03/16 11:16:24;;;;;;;5.47;1.97;;;11.80;1.00;;;;;;5048437;28;20554;-56
2023/03/16 11:18:57;;;;;;;6.00;2.20;;;11.70;1.00;;;;;;5049145;28;20493;-55
2023/03/16 11:21:53;;;;;;;3.53;1.30;;;11.70;1.00;;;;;;5048672;28;20496;-54
2023/03/16 11:24:41;;;;;;;2.90;1.70;;;11.80;1.00;;;;;;5049331;28;20527;-54
2023/03/16 11:27:17;;;;;;;2.87;1.40;;;12.00;1.00;;;;;;5048831;28;20466;-55
2023/03/16 11:30:00;;;;;;;2.80;1.40;;;12.10;1.00;;;;;;5048545;28;20459;-54
2023/03/16 11:32:32;;;;;;;1.53;1.30;;;12.00;1.00;;;;;;5048628;28;20439;-55
2023/03/16 11:34:59;;;;;;;2.50;1.60;;;12.10;1.00;;;;;;5048789;28;20459;-55
2023/03/16 11:37:40;;;;;;;1.40;1.00;;;12.10;1.00;;;;;;5048905;28;20655;-56
2023/03/16 11:40:44;;;;;;;1.70;1.07;;;12.20;1.00;;;;;;5048105;28;20944;-54
2023/03/16 11:43:24;;;;;;;4.13;1.30;;;12.20;1.00;;;;;;5052357;28;20774;-54
2023/03/16 11:46:00;;;;;;;3.53;1.10;;;12.20;1.00;;;;;;5053720;28;20431;-55
2023/03/16 11:48:40;;;;;;;2.97;1.40;;;12.30;1.00;;;;;;5052499;28;20430;-56
2023/03/16 11:51:06;;;;;;;3.00;1.00;;;12.10;1.00;;;;;;5052563;28;20461;-55
2023/03/16 11:54:00;;;;;;;3.00;1.33;;;11.90;1.00;;;;;;5052242;28;20465;-55
2023/03/16 11:56:31;;;;;;;3.80;1.17;;;12.00;1.00;;;;;;5051476;28;20236;-55
2023/03/16 11:59:18;;;;;;;4.90;1.40;;;11.70;1.00;;;;;;5052474;28;20422;-55
2023/03/16 12:01:47;;;;;;;4.20;1.20;;;11.90;1.00;;;;;;5052001;28;20903;-55
2023/03/16 12:04:30;;;;;;;4.60;1.40;;;12.20;1.00;;;;;;5052624;28;20843;-55
2023/03/16 12:07:24;;;;;;;2.90;1.53;;;12.20;1.00;;;;;;5051963;28;20406;-56
2023/03/16 12:10:22;;;;;;;3.57;1.17;;;12.50;1.00;;;;;;5051959;28;20785;-54
2023/03/16 12:13:06;;;;;;;3.73;1.20;;;12.80;1.00;;;;;;5052182;28;20474;-54
2023/03/16 12:15:50;;;;;;;2.30;1.10;;;12.90;1.00;;;;;;5051901;28;20483;-55
2023/03/16 12:18:34;;;;;;;2.80;1.40;;;12.90;1.00;;;;;;5062073;28;20445;-54
2023/03/16 12:21:04;;;;;;;2.17;0.80;;;12.90;1.00;;;;;;5071829;28;20958;-54
2023/03/16 12:23:38;;;;;;;3.70;1.40;;;12.80;1.00;;;;;;5071695;28;20412;-54
2023/03/16 12:26:04;;;;;;;5.43;1.63;;;12.70;1.00;;;;;;5065973;28;20482;-55
2023/03/16 12:28:32;;;;;;;3.03;1.80;;;12.60;1.00;;;;;;5051876;28;20544;-55
2023/03/16 12:31:32;;;;;;;3.87;1.50;;;12.60;1.00;;;;;;5051905;28;20673;-56
2023/03/16 12:34:25;;;;;;;4.23;1.07;;;12.60;1.00;;;;;;5018631;28;20466;-55
2023/03/16 12:37:01;;;;;;;1.43;1.10;;;12.40;1.00;;;;;;5051672;28;20758;-55
2023/03/16 12:39:47;;;;;;;3.90;1.17;;;12.30;1.00;;;;;;5051538;28;20434;-54
2023/03/16 12:42:54;;;;;;;3.67;2.00;;;12.40;1.00;;;;;;5051640;28;20485;-54
2023/03/16 12:45:28;;;;;;;3.37;1.40;;;12.40;1.00;;;;;;5051946;28;20425;-54
2023/03/16 12:48:21;;;;;;;1.77;1.47;;;12.40;1.00;;;;;;5048867;28;20450;-54
2023/03/16 12:50:50;;;;;;;4.50;2.00;;;12.20;1.00;;;;;;5064229;28;20405;-54
2023/03/16 12:53:54;;;;;;;3.40;1.50;;;12.00;1.00;;;;;;5056923;28;20776;-55
2023/03/16 12:56:32;;;;;;;3.53;1.37;;;11.80;1.00;;;;;;5040137;28;20474;-55
2023/03/16 12:59:01;;;;;;;3.40;1.27;;;12.00;1.00;;;;;;5048171;28;20421;-54
2023/03/16 13:01:41;;;;;;;3.07;1.47;;;12.20;1.00;;;;;;5042126;28;20822;-56
2023/03/16 13:04:19;;;;;;;3.10;1.40;;;12.30;1.00;;;;;;5048444;28;20863;-54
2023/03/16 13:07:04;;;;;;;4.07;1.70;;;12.30;1.00;;;;;;5045259;28;20462;-54
2023/03/16 13:09:34;;;;;;;3.10;1.57;;;12.60;1.00;;;;;;5046511;28;20469;-55
2023/03/16 13:12:03;;;;;;;5.40;1.90;;;12.50;1.00;;;;;;5045740;28;20414;-55
2023/03/16 13:14:40;;;;;;;3.30;1.70;;;12.40;1.00;;;;;;5042637;28;20445;-56
2023/03/16 13:17:22;;;;;;;11.43;3.03;;;12.30;1.00;;;;;;5039084;28;20481;-56
2023/03/16 13:20:12;;;;;;;3.90;2.20;;;12.20;1.00;;;;;;5043102;28;20446;-54
2023/03/16 13:22:50;;;;;;;2.10;1.87;;;12.20;1.00;;;;;;5042482;28;20413;-55